sensor_id;sensor_type;location;lat;lon;timestamp;pressure;altitude;pressure_sealevel;temperature;humidity
26320;BME280;14024;52.226;5.200;2023-11-19T00:00:09;100762.34;;;13.40;100.00
26320;BME280;14024;52.226;5.200;2023-11-19T00:02:38;100754.75;;;13.34;100.00
26320;BME280;14024;52.226;5.200;2023-11-19T00:05:04;100768.84;;;13.36;100.00
26320;BME280;14024;52.226;5.200;2023-11-19T00:07:34;100745.63;;;13.38;100.00
26320;BME280;14024;52.226;5.200;2023-11-19T00:09:59;100748.41;;;13.36;100.00
26320;BME280;14024;52.226;5.200;2023-11-19T00:12:35;100757.97;;;13.39;100.00
26320;BME280;14024;52.226;5.200;2023-11-19T00:15:00;100767.88;;;13.37;100.00
26320;BME280;14024;52.226;5.200;2023-11-19T00:17:26;100773.22;;;13.37;100.00
26320;BME280;14024;52.226;5.200;2023-11-19T00:19:52;100779.66;;;13.33;100.00
26320;BME280;14024;52.226;5.200;2023-11-19T00:22:17;100783.88;;;13.37;100.00
26320;BME280;14024;52.226;5.200;2023-11-19T00:24:42;100755.59;;;13.34;100.00
26320;BME280;14024;52.226;5.200;2023-11-19T00:27:08;100748.69;;;13.32;100.00
26320;BME280;14024;52.226;5.200;2023-11-19T00:29:33;100751.34;;;13.32;100.00
26320;BME280;14024;52.226;5.200;2023-11-19T00:31:58;100733.66;;;13.31;100.00
26320;BME280;14024;52.226;5.200;2023-11-19T00:34:24;100738.22;;;13.29;100.00
26320;BME280;14024;52.226;5.200;2023-11-19T00:36:49;100736.63;;;13.26;100.00
26320;BME280;14024;52.226;5.200;2023-11-19T00:39:15;100732.03;;;13.28;100.00
26320;BME280;14024;52.226;5.200;2023-11-19T00:41:40;100721.28;;;13.30;100.00
26320;BME280;14024;52.226;5.200;2023-11-19T00:44:06;100730.63;;;13.23;100.00
26320;BME280;14024;52.226;5.200;2023-11-19T00:46:31;100729.66;;;13.24;100.00
26320;BME280;14024;52.226;5.200;2023-11-19T00:48:58;100742.81;;;13.27;100.00
26320;BME280;14024;52.226;5.200;2023-11-19T00:51:25;100729.06;;;13.33;100.00
26320;BME280;14024;52.226;5.200;2023-11-19T00:53:51;100737.28;;;13.30;100.00
26320;BME280;14024;52.226;5.200;2023-11-19T00:56:18;100739.19;;;13.28;100.00
26320;BME280;14024;52.226;5.200;2023-11-19T00:58:44;100748.13;;;13.27;100.00
26320;BME280;14024;52.226;5.200;2023-11-19T01:01:11;100738.22;;;13.29;100.00
26320;BME280;14024;52.226;5.200;2023-11-19T01:03:37;100733.31;;;13.23;100.00
26320;BME280;14024;52.226;5.200;2023-11-19T01:06:03;100736.06;;;13.21;100.00
26320;BME280;14024;52.226;5.200;2023-11-19T01:08:28;100745.63;;;13.24;100.00
26320;BME280;14024;52.226;5.200;2023-11-19T01:10:54;100731.50;;;13.23;100.00
26320;BME280;14024;52.226;5.200;2023-11-19T01:13:19;100727.22;;;13.21;100.00
26320;BME280;14024;52.226;5.200;2023-11-19T01:15:44;100721.88;;;13.21;100.00
26320;BME280;14024;52.226;5.200;2023-11-19T01:18:10;100714.09;;;13.18;100.00
26320;BME280;14024;52.226;5.200;2023-11-19T01:20:36;100700.03;;;13.16;100.00
26320;BME280;14024;52.226;5.200;2023-11-19T01:23:02;100708.00;;;13.16;100.00
26320;BME280;14024;52.226;5.200;2023-11-19T01:25:27;100701.00;;;13.15;100.00
26320;BME280;14024;52.226;5.200;2023-11-19T01:27:53;100695.00;;;13.11;100.00
26320;BME280;14024;52.226;5.200;2023-11-19T01:30:18;100707.53;;;13.09;100.00
26320;BME280;14024;52.226;5.200;2023-11-19T01:32:44;100706.66;;;13.09;100.00
26320;BME280;14024;52.226;5.200;2023-11-19T01:35:10;100707.34;;;13.12;100.00
26320;BME280;14024;52.226;5.200;2023-11-19T01:37:35;100704.78;;;13.11;100.00
26320;BME280;14024;52.226;5.200;2023-11-19T01:40:01;100706.03;;;13.05;100.00
26320;BME280;14024;52.226;5.200;2023-11-19T01:42:28;100707.03;;;13.03;100.00
26320;BME280;14024;52.226;5.200;2023-11-19T01:45:00;100702.66;;;13.02;100.00
26320;BME280;14024;52.226;5.200;2023-11-19T01:47:27;100712.56;;;13.00;100.00
26320;BME280;14024;52.226;5.200;2023-11-19T01:49:54;100710.84;;;12.98;100.00
26320;BME280;14024;52.226;5.200;2023-11-19T01:52:20;100709.34;;;12.94;100.00
26320;BME280;14024;52.226;5.200;2023-11-19T01:54:45;100711.22;;;12.92;100.00
26320;BME280;14024;52.226;5.200;2023-11-19T01:57:12;100723.13;;;12.87;100.00
26320;BME280;14024;52.226;5.200;2023-11-19T01:59:38;100718.19;;;12.81;100.00
26320;BME280;14024;52.226;5.200;2023-11-19T02:02:05;100718.09;;;12.82;100.00
26320;BME280;14024;52.226;5.200;2023-11-19T02:04:31;100719.03;;;12.81;100.00
26320;BME280;14024;52.226;5.200;2023-11-19T02:06:58;100708.03;;;12.73;100.00
26320;BME280;14024;52.226;5.200;2023-11-19T02:09:24;100696.13;;;12.79;100.00
26320;BME280;14024;52.226;5.200;2023-11-19T02:11:49;100697.00;;;12.65;100.00
26320;BME280;14024;52.226;5.200;2023-11-19T02:14:17;100699.84;;;12.62;100.00
26320;BME280;14024;52.226;5.200;2023-11-19T02:16:44;100717.31;;;12.66;100.00
26320;BME280;14024;52.226;5.200;2023-11-19T02:19:09;100714.19;;;12.60;100.00
26320;BME280;14024;52.226;5.200;2023-11-19T02:21:36;100717.50;;;12.63;99.79
26320;BME280;14024;52.226;5.200;2023-11-19T02:24:06;100723.97;;;12.59;99.46
26320;BME280;14024;52.226;5.200;2023-11-19T02:26:39;100720.91;;;12.51;99.91
26320;BME280;14024;52.226;5.200;2023-11-19T02:29:05;100723.47;;;12.52;99.70
26320;BME280;14024;52.226;5.200;2023-11-19T02:31:32;100718.84;;;12.56;99.69
26320;BME280;14024;52.226;5.200;2023-11-19T02:33:57;100726.25;;;12.51;99.35
26320;BME280;14024;52.226;5.200;2023-11-19T02:36:22;100714.91;;;12.47;99.46
26320;BME280;14024;52.226;5.200;2023-11-19T02:38:47;100714.66;;;12.38;100.00
26320;BME280;14024;52.226;5.200;2023-11-19T02:41:14;100696.97;;;12.37;99.72
26320;BME280;14024;52.226;5.200;2023-11-19T02:43:39;100702.28;;;12.37;99.59
26320;BME280;14024;52.226;5.200;2023-11-19T02:46:05;100703.50;;;12.31;99.69
26320;BME280;14024;52.226;5.200;2023-11-19T02:48:36;100701.63;;;12.33;99.34
26320;BME280;14024;52.226;5.200;2023-11-19T02:51:02;100699.13;;;12.30;99.07
26320;BME280;14024;52.226;5.200;2023-11-19T02:53:29;100712.63;;;12.27;99.20
26320;BME280;14024;52.226;5.200;2023-11-19T02:55:54;100712.53;;;12.29;98.80
26320;BME280;14024;52.226;5.200;2023-11-19T02:58:27;100705.50;;;12.28;98.88
26320;BME280;14024;52.226;5.200;2023-11-19T03:00:53;100703.00;;;12.25;98.67
26320;BME280;14024;52.226;5.200;2023-11-19T03:03:26;100702.84;;;12.28;98.53
26320;BME280;14024;52.226;5.200;2023-11-19T03:05:56;100708.31;;;12.25;98.21
26320;BME280;14024;52.226;5.200;2023-11-19T03:08:21;100709.28;;;12.24;97.94
26320;BME280;14024;52.226;5.200;2023-11-19T03:10:47;100708.72;;;12.19;97.96
26320;BME280;14024;52.226;5.200;2023-11-19T03:13:13;100717.63;;;12.18;98.55
26320;BME280;14024;52.226;5.200;2023-11-19T03:15:39;100714.38;;;12.13;98.56
26320;BME280;14024;52.226;5.200;2023-11-19T03:18:04;100708.13;;;12.14;98.44
26320;BME280;14024;52.226;5.200;2023-11-19T03:20:30;100700.16;;;12.14;98.10
26320;BME280;14024;52.226;5.200;2023-11-19T03:22:55;100699.56;;;12.08;97.57
26320;BME280;14024;52.226;5.200;2023-11-19T03:25:24;100703.34;;;12.04;97.95
26320;BME280;14024;52.226;5.200;2023-11-19T03:27:50;100694.59;;;12.02;98.07
26320;BME280;14024;52.226;5.200;2023-11-19T03:30:16;100700.09;;;11.99;97.97
26320;BME280;14024;52.226;5.200;2023-11-19T03:32:42;100691.28;;;11.99;97.81
26320;BME280;14024;52.226;5.200;2023-11-19T03:35:08;100671.09;;;11.96;98.17
26320;BME280;14024;52.226;5.200;2023-11-19T03:37:34;100689.56;;;11.98;97.83
26320;BME280;14024;52.226;5.200;2023-11-19T03:39:59;100686.25;;;11.94;97.83
26320;BME280;14024;52.226;5.200;2023-11-19T03:42:28;100682.13;;;11.89;98.03
26320;BME280;14024;52.226;5.200;2023-11-19T03:44:53;100682.84;;;11.92;97.84
26320;BME280;14024;52.226;5.200;2023-11-19T03:47:19;100691.16;;;11.86;97.28
26320;BME280;14024;52.226;5.200;2023-11-19T03:49:49;100706.31;;;11.84;97.55
26320;BME280;14024;52.226;5.200;2023-11-19T03:52:14;100704.69;;;11.82;97.91
26320;BME280;14024;52.226;5.200;2023-11-19T03:54:39;100702.31;;;11.77;97.58
26320;BME280;14024;52.226;5.200;2023-11-19T03:57:05;100718.75;;;11.84;97.65
26320;BME280;14024;52.226;5.200;2023-11-19T03:59:30;100722.69;;;11.77;97.69
26320;BME280;14024;52.226;5.200;2023-11-19T04:01:56;100727.72;;;11.81;97.30
26320;BME280;14024;52.226;5.200;2023-11-19T04:04:22;100720.28;;;11.72;97.43
26320;BME280;14024;52.226;5.200;2023-11-19T04:06:49;100710.75;;;11.68;98.00
26320;BME280;14024;52.226;5.200;2023-11-19T04:09:14;100708.28;;;11.65;97.86
26320;BME280;14024;52.226;5.200;2023-11-19T04:11:40;100704.88;;;11.63;97.67
26320;BME280;14024;52.226;5.200;2023-11-19T04:14:05;100714.72;;;11.61;97.85
26320;BME280;14024;52.226;5.200;2023-11-19T04:16:31;100716.34;;;11.63;97.58
26320;BME280;14024;52.226;5.200;2023-11-19T04:18:56;100725.94;;;11.66;97.39
26320;BME280;14024;52.226;5.200;2023-11-19T04:21:22;100725.75;;;11.69;97.49
26320;BME280;14024;52.226;5.200;2023-11-19T04:23:49;100720.63;;;11.66;97.23
26320;BME280;14024;52.226;5.200;2023-11-19T04:26:14;100726.69;;;11.68;96.94
26320;BME280;14024;52.226;5.200;2023-11-19T04:28:40;100721.72;;;11.62;97.50
26320;BME280;14024;52.226;5.200;2023-11-19T04:31:06;100723.38;;;11.64;97.28
26320;BME280;14024;52.226;5.200;2023-11-19T04:33:31;100721.66;;;11.63;97.00
26320;BME280;14024;52.226;5.200;2023-11-19T04:35:57;100720.03;;;11.61;97.19
26320;BME280;14024;52.226;5.200;2023-11-19T04:38:23;100712.06;;;11.61;96.68
26320;BME280;14024;52.226;5.200;2023-11-19T04:40:48;100720.19;;;11.58;96.92
26320;BME280;14024;52.226;5.200;2023-11-19T04:43:14;100720.19;;;11.58;96.86
26320;BME280;14024;52.226;5.200;2023-11-19T04:45:40;100720.03;;;11.61;96.81
26320;BME280;14024;52.226;5.200;2023-11-19T04:48:06;100717.72;;;11.55;96.85
26320;BME280;14024;52.226;5.200;2023-11-19T04:50:31;100726.47;;;11.57;96.65
26320;BME280;14024;52.226;5.200;2023-11-19T04:52:56;100722.09;;;11.56;97.05
26320;BME280;14024;52.226;5.200;2023-11-19T04:55:22;100713.09;;;11.58;96.63
26320;BME280;14024;52.226;5.200;2023-11-19T04:57:47;100726.47;;;11.57;96.83
26320;BME280;14024;52.226;5.200;2023-11-19T05:00:13;100718.50;;;11.57;96.89
26320;BME280;14024;52.226;5.200;2023-11-19T05:02:39;100716.69;;;11.57;97.07
26320;BME280;14024;52.226;5.200;2023-11-19T05:05:04;100719.06;;;11.62;96.25
26320;BME280;14024;52.226;5.200;2023-11-19T05:07:30;100720.63;;;11.66;96.74
26320;BME280;14024;52.226;5.200;2023-11-19T05:09:55;100716.41;;;11.62;95.93
26320;BME280;14024;52.226;5.200;2023-11-19T05:12:20;100713.75;;;11.62;96.03
26320;BME280;14024;52.226;5.200;2023-11-19T05:14:46;100719.06;;;11.62;96.06
26320;BME280;14024;52.226;5.200;2023-11-19T05:17:15;100722.78;;;11.59;96.20
26320;BME280;14024;52.226;5.200;2023-11-19T05:19:40;100714.63;;;11.62;95.78
26320;BME280;14024;52.226;5.200;2023-11-19T05:22:06;100725.88;;;11.52;95.96
26320;BME280;14024;52.226;5.200;2023-11-19T05:24:31;100718.84;;;11.51;95.96
26320;BME280;14024;52.226;5.200;2023-11-19T05:26:57;100721.81;;;11.45;96.00
26320;BME280;14024;52.226;5.200;2023-11-19T05:29:23;100717.47;;;11.44;95.57
26320;BME280;14024;52.226;5.200;2023-11-19T05:31:49;100725.41;;;11.44;94.75
26320;BME280;14024;52.226;5.200;2023-11-19T05:34:14;100730.72;;;11.44;95.24
26320;BME280;14024;52.226;5.200;2023-11-19T05:36:40;100719.88;;;11.33;95.46
26320;BME280;14024;52.226;5.200;2023-11-19T05:39:05;100722.53;;;11.33;95.24
26320;BME280;14024;52.226;5.200;2023-11-19T05:41:31;100722.53;;;11.33;94.39
26320;BME280;14024;52.226;5.200;2023-11-19T05:43:56;100730.31;;;11.36;94.34
26320;BME280;14024;52.226;5.200;2023-11-19T05:46:21;100729.44;;;11.35;93.81
26320;BME280;14024;52.226;5.200;2023-11-19T05:48:48;100733.06;;;11.34;93.83
26320;BME280;14024;52.226;5.200;2023-11-19T05:51:13;100736.72;;;11.32;93.76
26320;BME280;14024;52.226;5.200;2023-11-19T05:53:40;100737.59;;;11.32;93.69
26320;BME280;14024;52.226;5.200;2023-11-19T05:56:06;100732.19;;;11.34;93.48
26320;BME280;14024;52.226;5.200;2023-11-19T05:58:34;100726.91;;;11.34;93.72
26320;BME280;14024;52.226;5.200;2023-11-19T06:01:01;100719.25;;;11.28;93.57
26320;BME280;14024;52.226;5.200;2023-11-19T06:03:27;100721.16;;;11.26;94.10
26320;BME280;14024;52.226;5.200;2023-11-19T06:05:53;100728.53;;;11.21;94.23
26320;BME280;14024;52.226;5.200;2023-11-19T06:08:19;100726.63;;;11.23;94.31
26320;BME280;14024;52.226;5.200;2023-11-19T06:10:46;100731.16;;;11.21;94.39
26320;BME280;14024;52.226;5.200;2023-11-19T06:13:12;100730.22;;;11.22;94.28
26320;BME280;14024;52.226;5.200;2023-11-19T06:15:37;100732.78;;;11.23;94.26
26320;BME280;14024;52.226;5.200;2023-11-19T06:18:03;100727.91;;;11.15;94.49
26320;BME280;14024;52.226;5.200;2023-11-19T06:20:32;100719.78;;;11.18;94.40
26320;BME280;14024;52.226;5.200;2023-11-19T06:22:58;100732.09;;;11.19;94.28
26320;BME280;14024;52.226;5.200;2023-11-19T06:25:24;100728.41;;;11.22;94.19
26320;BME280;14024;52.226;5.200;2023-11-19T06:27:52;100739.13;;;11.21;94.45
26320;BME280;14024;52.226;5.200;2023-11-19T06:30:18;100735.88;;;11.15;94.42
26320;BME280;14024;52.226;5.200;2023-11-19T06:32:44;100740.38;;;11.13;94.62
26320;BME280;14024;52.226;5.200;2023-11-19T06:35:10;100737.41;;;11.19;94.44
26320;BME280;14024;52.226;5.200;2023-11-19T06:37:38;100742.19;;;11.13;94.60
26320;BME280;14024;52.226;5.200;2023-11-19T06:40:04;100730.72;;;11.12;94.92
26320;BME280;14024;52.226;5.200;2023-11-19T06:42:30;100729.09;;;11.10;94.48
26320;BME280;14024;52.226;5.200;2023-11-19T06:44:57;100739.78;;;11.08;95.00
26320;BME280;14024;52.226;5.200;2023-11-19T06:47:26;100740.38;;;11.13;94.46
26320;BME280;14024;52.226;5.200;2023-11-19T06:49:54;100743.72;;;11.17;94.76
26320;BME280;14024;52.226;5.200;2023-11-19T06:52:20;100742.19;;;11.13;94.93
26320;BME280;14024;52.226;5.200;2023-11-19T06:54:46;100751.59;;;11.18;94.78
26320;BME280;14024;52.226;5.200;2023-11-19T06:57:12;100746.97;;;11.22;94.11
26320;BME280;14024;52.226;5.200;2023-11-19T06:59:38;100751.78;;;11.15;94.78
26320;BME280;14024;52.226;5.200;2023-11-19T07:02:03;100746.97;;;11.22;94.31
26320;BME280;14024;52.226;5.200;2023-11-19T07:04:30;100744.44;;;11.21;94.22
26320;BME280;14024;52.226;5.200;2023-11-19T07:06:55;100760.97;;;11.26;93.72
26320;BME280;14024;52.226;5.200;2023-11-19T07:09:20;100756.72;;;11.22;94.53
26320;BME280;14024;52.226;5.200;2023-11-19T07:11:47;100756.41;;;11.28;93.57
26320;BME280;14024;52.226;5.200;2023-11-19T07:14:12;100766.78;;;11.32;93.88
26320;BME280;14024;52.226;5.200;2023-11-19T07:16:38;100767.56;;;11.34;93.43
26320;BME280;14024;52.226;5.200;2023-11-19T07:19:04;100771.81;;;11.37;93.04
26320;BME280;14024;52.226;5.200;2023-11-19T07:21:30;100780.41;;;11.42;93.25
26320;BME280;14024;52.226;5.200;2023-11-19T07:23:57;100785.63;;;11.43;92.83
26320;BME280;14024;52.226;5.200;2023-11-19T07:26:23;100790.69;;;11.48;92.93
26320;BME280;14024;52.226;5.200;2023-11-19T07:28:49;100779.03;;;11.50;92.50
26320;BME280;14024;52.226;5.200;2023-11-19T07:31:15;100780.13;;;11.46;92.84
26320;BME280;14024;52.226;5.200;2023-11-19T07:33:40;100776.44;;;11.49;92.34
26320;BME280;14024;52.226;5.200;2023-11-19T07:36:09;100785.13;;;11.52;92.60
26320;BME280;14024;52.226;5.200;2023-11-19T07:38:35;100785.69;;;11.57;92.11
26320;BME280;14024;52.226;5.200;2023-11-19T07:41:00;100784.69;;;11.60;91.81
26320;BME280;14024;52.226;5.200;2023-11-19T07:43:26;100789.72;;;11.64;91.70
26320;BME280;14024;52.226;5.200;2023-11-19T07:45:52;100788.63;;;11.69;91.00
26320;BME280;14024;52.226;5.200;2023-11-19T07:48:17;100790.41;;;11.68;91.09
26320;BME280;14024;52.226;5.200;2023-11-19T07:50:48;100790.13;;;11.74;90.88
26320;BME280;14024;52.226;5.200;2023-11-19T07:53:14;100780.25;;;11.76;91.03
26320;BME280;14024;52.226;5.200;2023-11-19T07:55:40;100791.03;;;11.73;91.02
26320;BME280;14024;52.226;5.200;2023-11-19T07:58:05;100776.94;;;11.71;90.89
26320;BME280;14024;52.226;5.200;2023-11-19T08:00:31;100782.25;;;11.71;91.21
26320;BME280;14024;52.226;5.200;2023-11-19T08:02:56;100783.22;;;11.70;91.94
26320;BME280;14024;52.226;5.200;2023-11-19T08:05:21;100784.50;;;11.63;92.20
26320;BME280;14024;52.226;5.200;2023-11-19T08:07:48;100771.81;;;11.68;91.76
26320;BME280;14024;52.226;5.200;2023-11-19T08:10:13;100777.31;;;11.65;91.91
26320;BME280;14024;52.226;5.200;2023-11-19T08:12:40;100767.38;;;11.69;92.26
26320;BME280;14024;52.226;5.200;2023-11-19T08:15:05;100765.91;;;11.63;92.21
26320;BME280;14024;52.226;5.200;2023-11-19T08:17:32;100764.06;;;11.65;92.34
26320;BME280;14024;52.226;5.200;2023-11-19T08:19:57;100761.38;;;11.65;92.59
26320;BME280;14024;52.226;5.200;2023-11-19T08:22:22;100765.59;;;11.69;92.49
26320;BME280;14024;52.226;5.200;2023-11-19T08:24:48;100779.88;;;11.67;92.71
26320;BME280;14024;52.226;5.200;2023-11-19T08:27:13;100782.25;;;11.71;92.89
26320;BME280;14024;52.226;5.200;2023-11-19T08:29:39;100783.88;;;11.75;92.50
26320;BME280;14024;52.226;5.200;2023-11-19T08:32:05;100793.38;;;11.79;92.01
26320;BME280;14024;52.226;5.200;2023-11-19T08:34:31;100789.75;;;11.80;91.72
26320;BME280;14024;52.226;5.200;2023-11-19T08:36:56;100785.81;;;11.87;92.05
26320;BME280;14024;52.226;5.200;2023-11-19T08:39:22;100790.94;;;11.90;91.84
26320;BME280;14024;52.226;5.200;2023-11-19T08:41:47;100795.91;;;11.96;91.73
26320;BME280;14024;52.226;5.200;2023-11-19T08:44:14;100792.41;;;11.96;91.34
26320;BME280;14024;52.226;5.200;2023-11-19T08:46:49;100793.41;;;11.93;91.72
26320;BME280;14024;52.226;5.200;2023-11-19T08:49:15;100791.72;;;11.92;91.70
26320;BME280;14024;52.226;5.200;2023-11-19T08:51:40;100793.06;;;11.99;90.97
26320;BME280;14024;52.226;5.200;2023-11-19T08:54:06;100798.38;;;11.99;90.67
26320;BME280;14024;52.226;5.200;2023-11-19T08:56:32;100793.66;;;12.04;89.97
26320;BME280;14024;52.226;5.200;2023-11-19T08:58:58;100796.31;;;12.04;90.92
26320;BME280;14024;52.226;5.200;2023-11-19T09:01:23;100796.13;;;12.07;89.87
26320;BME280;14024;52.226;5.200;2023-11-19T09:03:49;100797.13;;;12.06;90.41
26320;BME280;14024;52.226;5.200;2023-11-19T09:06:15;100795.53;;;12.02;91.13
26320;BME280;14024;52.226;5.200;2023-11-19T09:08:42;100790.00;;;11.91;91.83
26320;BME280;14024;52.226;5.200;2023-11-19T09:11:08;100795.31;;;11.91;91.98
26320;BME280;14024;52.226;5.200;2023-11-19T09:13:34;100791.47;;;11.97;91.66
26320;BME280;14024;52.226;5.200;2023-11-19T09:15:59;100779.19;;;11.94;91.54
26320;BME280;14024;52.226;5.200;2023-11-19T09:18:29;100782.63;;;11.96;91.41
26320;BME280;14024;52.226;5.200;2023-11-19T09:20:54;100780.03;;;12.11;90.45
26320;BME280;14024;52.226;5.200;2023-11-19T09:23:19;100784.97;;;12.17;90.94
26320;BME280;14024;52.226;5.200;2023-11-19T09:25:45;100785.56;;;12.22;89.71
26320;BME280;14024;52.226;5.200;2023-11-19T09:28:10;100774.59;;;12.28;89.42
26320;BME280;14024;52.226;5.200;2023-11-19T09:30:35;100779.63;;;12.32;89.69
26320;BME280;14024;52.226;5.200;2023-11-19T09:33:01;100793.53;;;12.37;88.17
26320;BME280;14024;52.226;5.200;2023-11-19T09:35:26;100792.47;;;12.40;88.22
26320;BME280;14024;52.226;5.200;2023-11-19T09:37:51;100790.66;;;12.40;88.34
26320;BME280;14024;52.226;5.200;2023-11-19T09:40:18;100779.09;;;12.41;87.89
26320;BME280;14024;52.226;5.200;2023-11-19T09:42:44;100786.13;;;12.42;88.07
26320;BME280;14024;52.226;5.200;2023-11-19T09:45:15;100777.50;;;12.53;87.55
26320;BME280;14024;52.226;5.200;2023-11-19T09:47:46;100779.56;;;12.48;88.11
26320;BME280;14024;52.226;5.200;2023-11-19T09:50:18;100775.97;;;12.49;88.02
26320;BME280;14024;52.226;5.200;2023-11-19T09:52:45;100779.56;;;12.48;88.34
26320;BME280;14024;52.226;5.200;2023-11-19T09:55:10;100772.44;;;12.48;88.11
26320;BME280;14024;52.226;5.200;2023-11-19T09:57:38;100770.66;;;12.49;88.31
26320;BME280;14024;52.226;5.200;2023-11-19T10:00:04;100774.63;;;12.42;89.26
26320;BME280;14024;52.226;5.200;2023-11-19T10:02:33;100769.69;;;12.36;89.27
26320;BME280;14024;52.226;5.200;2023-11-19T10:05:04;100775.00;;;12.36;89.72
26320;BME280;14024;52.226;5.200;2023-11-19T10:07:31;100769.31;;;12.42;89.19
26320;BME280;14024;52.226;5.200;2023-11-19T10:09:58;100768.19;;;12.46;89.03
26320;BME280;14024;52.226;5.200;2023-11-19T10:12:26;100761.25;;;12.43;88.83
26320;BME280;14024;52.226;5.200;2023-11-19T10:14:51;100765.81;;;12.41;89.39
26320;BME280;14024;52.226;5.200;2023-11-19T10:17:18;100755.25;;;12.40;89.88
26320;BME280;14024;52.226;5.200;2023-11-19T10:19:44;100761.25;;;12.43;89.67
26320;BME280;14024;52.226;5.200;2023-11-19T10:22:10;100767.59;;;12.41;90.34
26320;BME280;14024;52.226;5.200;2023-11-19T10:24:36;100764.47;;;12.48;90.40
26320;BME280;14024;52.226;5.200;2023-11-19T10:27:06;100762.59;;;12.50;89.63
26320;BME280;14024;52.226;5.200;2023-11-19T10:29:36;100768.66;;;12.52;89.49
26320;BME280;14024;52.226;5.200;2023-11-19T10:32:01;100757.59;;;12.60;88.25
26320;BME280;14024;52.226;5.200;2023-11-19T10:34:27;100759.56;;;12.71;88.02
26320;BME280;14024;52.226;5.200;2023-11-19T10:36:53;100759.03;;;12.80;87.07
26320;BME280;14024;52.226;5.200;2023-11-19T10:39:18;100760.38;;;12.87;86.54
26320;BME280;14024;52.226;5.200;2023-11-19T10:41:45;100772.63;;;12.89;86.54
26320;BME280;14024;52.226;5.200;2023-11-19T10:44:11;100775.63;;;12.83;86.93
26320;BME280;14024;52.226;5.200;2023-11-19T10:46:39;100778.31;;;12.69;87.95
26320;BME280;14024;52.226;5.200;2023-11-19T10:49:06;100772.22;;;12.67;88.74
26320;BME280;14024;52.226;5.200;2023-11-19T10:51:32;100761.78;;;12.64;89.81
26320;BME280;14024;52.226;5.200;2023-11-19T10:54:02;100764.97;;;12.55;89.45
26320;BME280;14024;52.226;5.200;2023-11-19T10:56:31;100762.72;;;12.63;89.27
26320;BME280;14024;52.226;5.200;2023-11-19T10:58:58;100767.75;;;12.68;89.12
26320;BME280;14024;52.226;5.200;2023-11-19T11:01:27;100766.97;;;12.66;88.52
26320;BME280;14024;52.226;5.200;2023-11-19T11:03:59;100761.97;;;12.75;88.67
26320;BME280;14024;52.226;5.200;2023-11-19T11:06:26;100759.41;;;12.88;87.63
26320;BME280;14024;52.226;5.200;2023-11-19T11:08:53;100762.25;;;12.99;85.98
26320;BME280;14024;52.226;5.200;2023-11-19T11:11:19;100760.25;;;13.03;85.58
26320;BME280;14024;52.226;5.200;2023-11-19T11:13:47;100766.56;;;13.16;83.83
26320;BME280;14024;52.226;5.200;2023-11-19T11:16:13;100759.16;;;13.21;83.78
26320;BME280;14024;52.226;5.200;2023-11-19T11:18:39;100756.47;;;13.21;83.48
26320;BME280;14024;52.226;5.200;2023-11-19T11:21:14;100757.81;;;13.28;83.24
26320;BME280;14024;52.226;5.200;2023-11-19T11:24:11;100758.56;;;13.30;82.92
26320;BME280;14024;52.226;5.200;2023-11-19T11:26:57;100747.19;;;13.28;81.96
26320;BME280;14024;52.226;5.200;2023-11-19T11:29:41;100764.19;;;13.25;82.36
26320;BME280;14024;52.226;5.200;2023-11-19T11:32:26;100757.31;;;13.35;81.84
26320;BME280;14024;52.226;5.200;2023-11-19T11:37:44;100747.34;;;13.39;81.19
26320;BME280;14024;52.226;5.200;2023-11-19T11:40:17;100746.94;;;13.45;81.37
26320;BME280;14024;52.226;5.200;2023-11-19T11:42:46;100750.56;;;13.44;79.97
26320;BME280;14024;52.226;5.200;2023-11-19T11:45:14;100748.09;;;13.41;80.07
26320;BME280;14024;52.226;5.200;2023-11-19T11:50:12;100745.22;;;13.44;79.70
26320;BME280;14024;52.226;5.200;2023-11-19T11:55:25;100744.75;;;13.37;80.07
26320;BME280;14024;52.226;5.200;2023-11-19T11:57:51;100741.34;;;13.35;80.52
26320;BME280;14024;52.226;5.200;2023-11-19T12:03:00;100737.19;;;13.31;82.31
26320;BME280;14024;52.226;5.200;2023-11-19T12:05:26;100732.72;;;13.32;82.61
26320;BME280;14024;52.226;5.200;2023-11-19T12:08:03;100730.22;;;13.29;83.25
26320;BME280;14024;52.226;5.200;2023-11-19T12:10:30;100736.78;;;13.37;83.50
26320;BME280;14024;52.226;5.200;2023-11-19T12:12:59;100726.72;;;13.28;83.60
26320;BME280;14024;52.226;5.200;2023-11-19T12:15:25;100726.63;;;13.30;84.56
26320;BME280;14024;52.226;5.200;2023-11-19T12:17:53;100732.03;;;13.28;84.76
26320;BME280;14024;52.226;5.200;2023-11-19T12:20:22;100723.50;;;13.23;84.97
26320;BME280;14024;52.226;5.200;2023-11-19T12:22:48;100726.81;;;13.27;85.00
26320;BME280;14024;52.226;5.200;2023-11-19T12:25:15;100737.28;;;13.30;85.22
26320;BME280;14024;52.226;5.200;2023-11-19T12:27:43;100738.41;;;13.26;84.84
26320;BME280;14024;52.226;5.200;2023-11-19T12:30:09;100736.81;;;13.23;84.56
26320;BME280;14024;52.226;5.200;2023-11-19T12:32:45;100727.78;;;13.26;84.35
26320;BME280;14024;52.226;5.200;2023-11-19T12:35:11;100728.72;;;13.25;84.25
26320;BME280;14024;52.226;5.200;2023-11-19T12:37:43;100731.94;;;13.30;84.83
26320;BME280;14024;52.226;5.200;2023-11-19T12:42:38;100740.50;;;13.35;83.02
26320;BME280;14024;52.226;5.200;2023-11-19T12:45:04;100740.88;;;13.29;83.24
26320;BME280;14024;52.226;5.200;2023-11-19T12:47:29;100728.72;;;13.25;81.87
26320;BME280;14024;52.226;5.200;2023-11-19T12:49:56;100736.63;;;13.26;80.84
26320;BME280;14024;52.226;5.200;2023-11-19T12:52:21;100743.84;;;13.24;80.62
26320;BME280;14024;52.226;5.200;2023-11-19T12:54:48;100740.88;;;13.29;80.12
26320;BME280;14024;52.226;5.200;2023-11-19T12:57:13;100740.88;;;13.29;80.27